createdAt,value
2022-09-07T00:00:02.279Z,5.68
2022-09-07T00:02:04.198Z,5.72
2022-09-07T00:04:06.153Z,5.55
2022-09-07T00:06:10.481Z,5.57
2022-09-07T00:08:12.743Z,5.85
2022-09-07T00:10:14.429Z,5.22
2022-09-07T00:12:16.158Z,5.47
2022-09-07T00:14:17.832Z,5.78
2022-09-07T00:16:22.838Z,5.68
2022-09-07T00:18:25.196Z,5.72
2022-09-07T00:20:27.051Z,5.13
2022-09-07T00:22:28.798Z,5.38
2022-09-07T00:24:31.054Z,5.18
2022-09-07T00:26:32.746Z,6.03
2022-09-07T00:28:34.922Z,5.22
2022-09-07T00:30:41.812Z,5.22
2022-09-07T00:32:43.534Z,4.93
2022-09-07T00:34:45.222Z,5.07
2022-09-07T00:36:47.082Z,5.00
2022-09-07T00:38:49.236Z,5.30
2022-09-07T00:40:50.964Z,5.53
2022-09-07T00:42:52.703Z,4.93
2022-09-07T00:45:03.207Z,5.68
2022-09-07T00:47:12.542Z,5.32
2022-09-07T00:49:18.544Z,5.25
2022-09-07T00:51:33.770Z,5.63
2022-09-07T00:53:40.018Z,5.85
2022-09-07T00:55:43.269Z,5.60
2022-09-07T00:57:49.266Z,5.63
2022-09-07T00:59:52.986Z,5.30
2022-09-07T01:03:57.877Z,5.25
2022-09-07T01:06:11.555Z,5.35
2022-09-07T01:08:13.952Z,5.50
2022-09-07T01:10:16.018Z,6.03
2022-09-07T01:12:17.713Z,5.90
2022-09-07T01:14:22.782Z,5.40
2022-09-07T01:16:39.562Z,5.63
2022-09-07T01:18:58.548Z,5.43
2022-09-07T01:21:09.010Z,5.47
2022-09-07T01:23:38.308Z,6.47
2022-09-07T01:26:10.850Z,6.18
2022-09-07T01:28:23.635Z,6.32
2022-09-07T01:30:26.006Z,5.63
2022-09-07T01:32:49.429Z,5.88
2022-09-07T01:34:53.411Z,5.85
2022-09-07T01:37:16.542Z,5.72
2022-09-07T01:39:19.851Z,6.20
2022-09-07T01:41:33.637Z,6.40
2022-09-07T01:44:02.803Z,6.10
2022-09-07T01:46:10.212Z,5.95
2022-09-07T01:48:15.183Z,5.43
2022-09-07T01:50:19.233Z,5.78
2022-09-07T01:52:34.112Z,5.28
2022-09-07T01:55:01.395Z,5.80
2022-09-07T01:57:07.786Z,5.80
2022-09-07T01:59:18.866Z,6.00
2022-09-07T02:01:22.381Z,5.57
2022-09-07T02:03:53.783Z,5.40
2022-09-07T02:06:04.652Z,6.05
2022-09-07T02:08:23.108Z,6.00
2022-09-07T02:10:29.145Z,5.60
2022-09-07T02:13:09.680Z,5.57
2022-09-07T02:15:15.444Z,5.45
2022-09-07T02:17:19.841Z,5.45
2022-09-07T02:19:22.637Z,5.75
2022-09-07T02:21:28.654Z,5.63
2022-09-07T02:23:34.187Z,6.45
2022-09-07T02:25:48.281Z,6.35
2022-09-07T02:29:52.576Z,6.28
2022-09-07T02:31:54.261Z,5.88
2022-09-07T02:33:56.326Z,5.40
2022-09-07T02:35:58.558Z,5.97
2022-09-07T02:38:05.939Z,5.50
2022-09-07T02:40:08.758Z,6.75
2022-09-07T02:42:10.521Z,5.60
2022-09-07T02:44:34.660Z,5.78
2022-09-07T02:47:15.206Z,6.28
2022-09-07T02:49:44.743Z,5.93
2022-09-07T02:52:01.204Z,5.90
2022-09-07T02:54:22.840Z,6.20
2022-09-07T02:56:27.479Z,6.03
2022-09-07T02:59:01.679Z,5.25
2022-09-07T03:01:15.690Z,5.95
2022-09-07T03:05:26.937Z,5.90
2022-09-07T03:07:44.017Z,5.30
2022-09-07T03:09:50.219Z,5.47
2022-09-07T03:11:52.015Z,5.32
2022-09-07T03:14:00.054Z,5.28
2022-09-07T03:16:02.062Z,5.82
2022-09-07T03:18:03.915Z,5.82
2022-09-07T03:20:05.858Z,5.30
2022-09-07T03:22:07.619Z,5.47
2022-09-07T03:24:09.428Z,6.57
2022-09-07T03:26:23.137Z,5.97
2022-09-07T03:28:24.921Z,6.40
2022-09-07T03:30:26.840Z,6.50
2022-09-07T03:32:33.652Z,7.18
2022-09-07T03:34:36.342Z,6.32
2022-09-07T03:36:38.097Z,6.85
2022-09-07T03:38:39.997Z,6.82
2022-09-07T03:40:41.660Z,6.68
2022-09-07T03:42:43.481Z,6.68
2022-09-07T03:44:45.362Z,6.88
2022-09-07T03:46:47.079Z,6.85
2022-09-07T03:48:50.416Z,6.55
2022-09-07T03:51:06.738Z,6.38
2022-09-07T03:53:08.433Z,6.43
2022-09-07T03:55:10.405Z,6.50
2022-09-07T03:57:12.588Z,6.75
2022-09-07T03:59:14.314Z,6.85
2022-09-07T04:01:18.838Z,7.22
2022-09-07T04:03:20.661Z,7.03
2022-09-07T04:05:22.511Z,7.03
2022-09-07T04:07:24.195Z,6.88
2022-09-07T04:09:25.851Z,18.95
2022-09-07T04:11:27.533Z,12.70
2022-09-07T04:13:30.315Z,7.65
2022-09-07T04:15:32.456Z,11.70
2022-09-07T04:17:34.093Z,12.95
2022-09-07T04:19:35.988Z,8.70
2022-09-07T04:21:37.689Z,7.63
2022-09-07T04:23:40.597Z,7.80
2022-09-07T04:25:49.112Z,6.97
2022-09-07T04:27:50.867Z,7.30
2022-09-07T04:29:52.550Z,7.15
2022-09-07T04:31:54.288Z,6.88
2022-09-07T04:33:56.231Z,7.25
2022-09-07T04:36:02.406Z,6.82
2022-09-07T04:38:04.598Z,6.68
2022-09-07T04:40:06.630Z,6.70
2022-09-07T04:42:08.292Z,6.43
2022-09-07T04:44:13.635Z,6.78
2022-09-07T04:46:24.013Z,6.20
2022-09-07T04:48:25.765Z,7.85
2022-09-07T04:50:27.443Z,9.48
2022-09-07T04:52:29.235Z,11.90
2022-09-07T04:54:31.104Z,12.02
2022-09-07T04:56:33.069Z,10.93
2022-09-07T04:58:36.400Z,8.85
2022-09-07T05:00:39.316Z,8.45
2022-09-07T05:02:41.571Z,7.50
2022-09-07T05:04:43.388Z,7.57
2022-09-07T05:06:45.101Z,7.85
2022-09-07T05:08:48.977Z,7.45
2022-09-07T05:10:51.886Z,7.43
2022-09-07T05:12:53.606Z,7.30
2022-09-07T05:14:55.273Z,7.22
2022-09-07T05:16:57.186Z,7.22
2022-09-07T05:19:01.387Z,6.93
2022-09-07T05:21:13.543Z,7.13
2022-09-07T05:23:15.442Z,7.50
2022-09-07T05:25:17.135Z,7.82
2022-09-07T05:27:18.967Z,7.32
2022-09-07T05:31:43.062Z,7.60
2022-09-07T05:36:15.221Z,7.68
2022-09-07T05:38:16.826Z,7.40
2022-09-07T05:40:18.598Z,7.90
2022-09-07T05:42:20.244Z,7.40
2022-09-07T05:46:44.222Z,6.53
2022-09-07T05:48:46.031Z,7.05
2022-09-07T05:50:53.729Z,6.35
2022-09-07T05:52:55.469Z,5.50
2022-09-07T05:55:13.036Z,5.13
2022-09-07T05:57:15.147Z,4.95
2022-09-07T05:59:16.985Z,5.53
2022-09-07T06:01:18.951Z,4.20
2022-09-07T06:03:20.844Z,4.38
2022-09-07T06:05:22.970Z,4.25
2022-09-07T06:07:24.688Z,4.47
2022-09-07T06:09:30.360Z,4.68
2022-09-07T06:11:32.615Z,4.78
2022-09-07T06:13:34.897Z,4.30
2022-09-07T06:15:36.655Z,3.92
2022-09-07T06:17:38.830Z,4.05
2022-09-07T06:19:40.476Z,4.32
2022-09-07T06:21:42.192Z,4.30
2022-09-07T06:23:44.298Z,3.70
2022-09-07T06:25:49.802Z,3.55
2022-09-07T06:27:54.061Z,3.53
2022-09-07T06:29:56.239Z,3.25
2022-09-07T06:34:19.674Z,4.47
2022-09-07T06:36:23.282Z,4.20
2022-09-07T06:38:29.917Z,3.03
2022-09-07T06:40:34.478Z,3.25
2022-09-07T06:42:36.182Z,4.13
2022-09-07T06:44:37.835Z,3.10
2022-09-07T06:49:01.212Z,3.25
2022-09-07T06:51:14.426Z,3.40
2022-09-07T06:55:45.285Z,3.35
2022-09-07T06:57:46.995Z,3.00
2022-09-07T06:59:48.672Z,2.83
2022-09-07T07:01:50.324Z,3.10
2022-09-07T07:03:53.345Z,3.22
2022-09-07T07:05:56.248Z,2.65
2022-09-07T07:07:58.129Z,3.00
2022-09-07T07:09:59.799Z,3.00
2022-09-07T07:12:01.493Z,3.10
2022-09-07T07:14:03.415Z,2.60
2022-09-07T07:16:13.298Z,2.88
2022-09-07T07:18:30.902Z,2.92
2022-09-07T07:20:32.749Z,2.85
2022-09-07T07:22:49.699Z,3.53
2022-09-07T07:24:51.471Z,2.55
2022-09-07T07:26:53.290Z,3.15
2022-09-07T07:31:06.070Z,3.20
2022-09-07T07:33:11.070Z,2.90
2022-09-07T07:35:13.267Z,3.20
2022-09-07T07:37:16.023Z,3.03
2022-09-07T07:41:56.454Z,2.78
2022-09-07T07:44:00.766Z,3.70
2022-09-07T07:46:05.547Z,3.05
2022-09-07T07:48:07.903Z,2.95
2022-09-07T07:53:41.157Z,2.80
2022-09-07T07:54:58.104Z,2.80
2022-09-07T07:56:59.754Z,2.60
2022-09-07T07:59:01.761Z,4.15
2022-09-07T08:01:12.262Z,2.83
2022-09-07T08:03:13.984Z,3.03
2022-09-07T08:05:17.167Z,2.90
2022-09-07T08:07:19.423Z,3.08
2022-09-07T08:09:21.101Z,3.17
2022-09-07T08:11:23.239Z,3.20
2022-09-07T08:13:26.113Z,3.10
2022-09-07T08:15:27.744Z,2.88
2022-09-07T08:17:29.648Z,3.00
2022-09-07T08:19:31.215Z,2.80
2022-09-07T08:21:32.828Z,3.10
2022-09-07T08:23:34.921Z,2.90
2022-09-07T08:25:36.740Z,3.05
2022-09-07T08:27:38.302Z,3.15
2022-09-07T08:29:39.915Z,3.30
2022-09-07T08:31:41.625Z,2.90
2022-09-07T08:33:43.424Z,3.25
2022-09-07T08:36:02.871Z,2.92
2022-09-07T08:38:04.521Z,2.92
2022-09-07T08:40:06.610Z,4.80
2022-09-07T08:42:19.514Z,3.22
2022-09-07T08:44:27.090Z,3.30
2022-09-07T08:46:51.942Z,3.20
2022-09-07T08:48:54.427Z,2.90
2022-09-07T08:51:05.818Z,3.30
2022-09-07T08:53:18.401Z,3.22
2022-09-07T08:55:36.703Z,3.38
2022-09-07T08:57:42.035Z,3.03
2022-09-07T08:59:49.328Z,2.97
2022-09-07T09:04:27.965Z,3.03
2022-09-07T09:06:58.818Z,2.88
2022-09-07T09:09:32.295Z,3.55
2022-09-07T09:11:52.413Z,3.35
2022-09-07T09:14:10.301Z,3.40
2022-09-07T09:16:23.907Z,2.85
2022-09-07T09:18:42.975Z,2.88
2022-09-07T09:20:49.922Z,3.40
2022-09-07T09:22:52.669Z,3.58
2022-09-07T09:25:23.513Z,3.20
2022-09-07T09:27:25.131Z,2.97
2022-09-07T09:29:26.749Z,3.45
2022-09-07T09:31:33.944Z,3.42
2022-09-07T09:33:35.886Z,3.03
2022-09-07T09:35:38.550Z,3.33
2022-09-07T09:37:41.560Z,3.40
2022-09-07T09:39:44.749Z,3.78
2022-09-07T09:41:46.498Z,3.78
2022-09-07T09:43:58.243Z,3.97
2022-09-07T09:46:15.895Z,3.50
2022-09-07T09:48:32.860Z,3.25
2022-09-07T09:53:00.791Z,3.03
2022-09-07T09:55:30.133Z,2.95
2022-09-07T10:00:29.217Z,2.95
2022-09-07T10:04:55.193Z,3.37
2022-09-07T10:07:00.759Z,3.38
2022-09-07T10:09:02.568Z,2.90
2022-09-07T10:11:09.097Z,3.65
2022-09-07T10:13:21.267Z,3.42
2022-09-07T10:15:29.976Z,3.10
2022-09-07T10:17:36.965Z,3.47
2022-09-07T10:19:41.581Z,3.50
2022-09-07T10:21:43.737Z,3.03
2022-09-07T10:23:45.385Z,3.33
2022-09-07T10:25:47.913Z,3.05
2022-09-07T10:28:21.184Z,3.35
2022-09-07T10:30:22.925Z,2.88
2022-09-07T10:32:52.989Z,3.45
2022-09-07T10:34:57.585Z,3.50
2022-09-07T10:37:03.578Z,3.60
2022-09-07T10:39:11.230Z,3.33
2022-09-07T10:41:13.480Z,3.05
2022-09-07T10:43:43.893Z,3.15
2022-09-07T10:46:07.333Z,3.00
2022-09-07T10:48:26.067Z,3.15
2022-09-07T10:50:51.640Z,3.33
2022-09-07T10:53:40.113Z,3.00
2022-09-07T10:55:51.088Z,3.60
2022-09-07T10:58:01.959Z,3.10
2022-09-07T11:00:10.012Z,3.20
2022-09-07T11:02:29.374Z,2.90
2022-09-07T11:04:44.483Z,3.25
2022-09-07T11:06:53.041Z,3.28
2022-09-07T11:09:17.325Z,3.03
2022-09-07T11:14:13.496Z,3.40
2022-09-07T11:23:53.023Z,3.58
2022-09-07T11:26:01.778Z,3.72
2022-09-07T11:28:41.781Z,3.63
2022-09-07T11:30:49.975Z,3.15
2022-09-07T11:32:58.117Z,3.58
2022-09-07T11:35:15.848Z,3.53
2022-09-07T11:37:46.580Z,3.92
2022-09-07T11:40:06.403Z,3.67
2022-09-07T11:44:47.984Z,2.95
2022-09-07T11:46:55.851Z,3.20
2022-09-07T11:48:58.091Z,3.05
2022-09-07T11:51:03.101Z,2.88
2022-09-07T11:53:15.321Z,3.90
2022-09-07T11:55:38.610Z,3.42
2022-09-07T11:58:05.346Z,3.40
2022-09-07T12:00:28.240Z,3.60
2022-09-07T12:03:02.732Z,3.65
2022-09-07T12:07:32.060Z,3.45
2022-09-07T12:10:07.616Z,3.45
2022-09-07T12:12:11.826Z,3.17
2022-09-07T12:14:31.856Z,3.10
2022-09-07T12:16:48.317Z,3.22
2022-09-07T12:18:52.907Z,3.25
2022-09-07T12:20:54.921Z,3.63
2022-09-07T12:23:05.499Z,3.63
2022-09-07T12:25:17.880Z,3.17
2022-09-07T12:27:22.523Z,3.55
2022-09-07T12:29:25.972Z,3.88
2022-09-07T12:34:33.609Z,2.95
2022-09-07T12:36:35.140Z,3.60
2022-09-07T12:39:01.662Z,3.28
2022-09-07T12:41:24.668Z,3.42
2022-09-07T12:43:45.024Z,3.72
2022-09-07T12:45:48.895Z,3.30
2022-09-07T12:47:59.959Z,3.30
2022-09-07T12:50:21.244Z,3.30
2022-09-07T12:52:34.926Z,3.45
2022-09-07T12:54:45.534Z,3.05
2022-09-07T12:59:38.460Z,3.22
2022-09-07T13:02:04.731Z,3.47
2022-09-07T13:04:15.407Z,3.20
2022-09-07T13:09:28.775Z,3.50
2022-09-07T13:11:33.863Z,3.20
2022-09-07T13:16:06.304Z,2.88
2022-09-07T13:18:31.566Z,2.90
2022-09-07T13:20:37.769Z,2.90
2022-09-07T13:22:41.932Z,2.95
2022-09-07T13:24:53.404Z,3.10
2022-09-07T13:27:00.972Z,3.47
2022-09-07T13:29:03.582Z,3.22
2022-09-07T13:31:14.670Z,4.10
2022-09-07T13:33:25.286Z,2.80
2022-09-07T13:35:27.515Z,3.28
2022-09-07T13:37:29.844Z,3.20
2022-09-07T13:39:45.349Z,3.53
2022-09-07T13:41:56.060Z,3.20
2022-09-07T13:44:02.190Z,3.42
2022-09-07T13:46:31.174Z,3.50
2022-09-07T13:48:39.678Z,3.28
2022-09-07T13:50:53.242Z,3.10
2022-09-07T13:53:12.959Z,3.83
2022-09-07T13:55:45.531Z,3.05
2022-09-07T13:58:10.229Z,3.22
2022-09-07T14:00:16.152Z,3.95
2022-09-07T14:02:28.173Z,3.35
2022-09-07T14:04:41.453Z,2.60
2022-09-07T14:06:43.226Z,3.67
2022-09-07T14:08:51.129Z,3.40
2022-09-07T14:10:52.766Z,3.00
2022-09-07T14:13:14.101Z,2.78
2022-09-07T14:15:31.977Z,3.00
2022-09-07T14:17:33.878Z,3.60
2022-09-07T14:19:37.860Z,2.88
2022-09-07T14:21:40.211Z,3.40
2022-09-07T14:23:41.885Z,3.65
2022-09-07T14:28:05.118Z,2.63
2022-09-07T14:30:28.395Z,2.47
2022-09-07T14:32:32.086Z,3.00
2022-09-07T14:34:37.679Z,2.65
2022-09-07T14:36:45.654Z,2.40
2022-09-07T14:39:04.428Z,2.72
2022-09-07T14:41:10.124Z,3.40
2022-09-07T14:43:30.230Z,2.95
2022-09-07T14:45:33.697Z,3.00
2022-09-07T14:47:35.482Z,2.90
2022-09-07T14:49:37.681Z,2.92
2022-09-07T14:51:43.536Z,2.58
2022-09-07T14:53:52.570Z,3.08
2022-09-07T14:56:02.171Z,2.92
2022-09-07T14:58:15.853Z,3.25
2022-09-07T15:02:32.327Z,2.78
2022-09-07T15:04:34.358Z,2.65
2022-09-07T15:09:07.053Z,3.22
2022-09-07T15:11:37.431Z,2.92
2022-09-07T15:13:41.741Z,3.08
2022-09-07T15:15:46.778Z,2.90
2022-09-07T15:17:48.849Z,3.10
2022-09-07T15:19:50.973Z,2.83
2022-09-07T15:21:52.525Z,3.20
2022-09-07T15:23:57.002Z,2.67
2022-09-07T15:25:58.639Z,2.83
2022-09-07T15:28:00.237Z,2.92
2022-09-07T15:30:01.852Z,3.13
2022-09-07T15:32:09.266Z,2.78
2022-09-07T15:34:20.595Z,2.80
2022-09-07T15:36:22.290Z,3.28
2022-09-07T15:41:21.759Z,2.92
2022-09-07T15:43:21.590Z,3.08
2022-09-07T15:45:24.736Z,2.85
2022-09-07T15:49:51.331Z,3.05
2022-09-07T15:52:08.653Z,3.40
2022-09-07T15:54:13.123Z,3.33
2022-09-07T15:56:17.241Z,3.17
2022-09-07T15:58:21.501Z,3.30
2022-09-07T16:00:23.154Z,3.63
2022-09-07T16:04:46.732Z,3.17
2022-09-07T16:06:48.572Z,2.97
2022-09-07T16:08:51.809Z,3.05
2022-09-07T16:10:54.289Z,3.03
2022-09-07T16:13:01.224Z,2.80
2022-09-07T16:15:05.305Z,2.90
2022-09-07T16:19:29.497Z,2.85
2022-09-07T16:21:31.058Z,2.78
2022-09-07T16:23:32.827Z,3.05
2022-09-07T16:25:35.233Z,2.80
2022-09-07T16:27:36.929Z,3.17
2022-09-07T16:29:38.905Z,3.10
2022-09-07T16:32:43.933Z,3.60
2022-09-07T16:34:02.849Z,3.42
2022-09-07T16:36:16.270Z,3.50
2022-09-07T16:40:42.953Z,3.47
2022-09-07T16:42:45.377Z,3.80
2022-09-07T16:44:47.180Z,3.42
2022-09-07T16:46:48.767Z,3.63
2022-09-07T16:48:51.470Z,3.70
2022-09-07T16:51:01.604Z,3.58
2022-09-07T16:53:04.516Z,3.55
2022-09-07T16:55:06.691Z,3.55
2022-09-07T16:57:08.416Z,3.63
2022-09-07T16:59:16.071Z,3.92
2022-09-07T17:01:20.296Z,3.90
2022-09-07T17:03:21.979Z,3.83
2022-09-07T17:05:23.817Z,3.60
2022-09-07T17:07:25.426Z,3.90
2022-09-07T17:09:28.641Z,3.97
2022-09-07T17:11:32.840Z,4.07
2022-09-07T17:13:36.641Z,3.30
2022-09-07T17:15:38.223Z,4.47
2022-09-07T17:17:39.859Z,3.65
2022-09-07T17:19:41.761Z,3.95
2022-09-07T17:21:43.566Z,3.80
2022-09-07T17:23:51.956Z,4.13
2022-09-07T17:26:10.782Z,4.00
2022-09-07T17:28:12.617Z,3.88
2022-09-07T17:30:16.871Z,3.78
2022-09-07T17:32:26.274Z,4.07
2022-09-07T17:34:29.864Z,3.65
2022-09-07T17:36:31.662Z,4.05
2022-09-07T17:40:55.726Z,4.28
2022-09-07T17:45:19.276Z,4.32
2022-09-07T17:47:21.358Z,4.32
2022-09-07T17:49:22.990Z,4.18
2022-09-07T17:51:26.716Z,4.57
2022-09-07T17:53:28.326Z,4.95
2022-09-07T17:55:31.662Z,4.32
2022-09-07T17:57:34.933Z,4.70
2022-09-07T18:01:58.438Z,4.85
2022-09-07T18:04:00.095Z,5.00
2022-09-07T18:06:02.922Z,5.50
2022-09-07T18:08:04.859Z,5.30
2022-09-07T18:10:07.033Z,5.38
2022-09-07T18:12:08.718Z,5.05
2022-09-07T18:14:10.332Z,4.45
2022-09-07T18:16:24.287Z,5.63
2022-09-07T18:18:26.580Z,5.75
2022-09-07T18:20:32.558Z,5.43
2022-09-07T18:22:34.581Z,5.07
2022-09-07T18:24:36.996Z,5.10
2022-09-07T18:26:39.196Z,5.18
2022-09-07T18:31:11.177Z,5.25
2022-09-07T18:33:12.927Z,5.90
2022-09-07T18:35:15.006Z,5.63
2022-09-07T18:37:16.860Z,5.75
2022-09-07T18:39:18.882Z,6.30
2022-09-07T18:41:21.190Z,6.38
2022-09-07T18:43:23.052Z,6.57
2022-09-07T18:45:28.120Z,5.80
2022-09-07T18:47:31.463Z,5.50
2022-09-07T18:49:33.207Z,5.90
2022-09-07T18:52:51.767Z,5.65
2022-09-07T18:53:56.456Z,5.40
2022-09-07T18:56:05.106Z,4.63
2022-09-07T18:58:06.678Z,4.63
2022-09-07T19:00:10.029Z,4.80
2022-09-07T19:02:12.194Z,5.18
2022-09-07T19:04:14.022Z,5.40
2022-09-07T19:06:16.068Z,5.05
2022-09-07T19:08:17.830Z,4.57
2022-09-07T19:10:19.588Z,4.25
2022-09-07T19:12:21.624Z,4.90
2022-09-07T19:14:23.260Z,4.68
2022-09-07T19:16:25.878Z,4.07
2022-09-07T19:18:27.681Z,5.43
2022-09-07T19:20:29.422Z,4.50
2022-09-07T19:22:30.997Z,4.07
2022-09-07T19:24:33.340Z,4.68
2022-09-07T19:26:37.179Z,5.00
2022-09-07T19:28:38.913Z,4.63
2022-09-07T19:30:40.553Z,4.00
2022-09-07T19:32:42.155Z,4.50
2022-09-07T19:34:45.510Z,3.90
2022-09-07T19:36:47.186Z,3.78
2022-09-07T19:38:49.243Z,3.95
2022-09-07T19:40:58.156Z,4.13
2022-09-07T19:42:59.954Z,3.97
2022-09-07T19:45:01.600Z,3.13
2022-09-07T19:47:03.350Z,4.13
2022-09-07T19:49:05.718Z,4.22
2022-09-07T19:51:10.915Z,3.88
2022-09-07T19:53:14.533Z,3.40
2022-09-07T19:57:18.067Z,3.50
2022-09-07T19:59:20.186Z,3.83
2022-09-07T20:01:25.065Z,3.67
2022-09-07T20:03:26.832Z,3.33
2022-09-07T20:05:31.055Z,3.20
2022-09-07T20:07:32.643Z,3.65
2022-09-07T20:09:34.324Z,3.60
2022-09-07T20:11:36.510Z,3.20
2022-09-07T20:13:39.011Z,3.55
2022-09-07T20:15:42.381Z,3.33
2022-09-07T20:17:44.038Z,3.67
2022-09-07T20:19:45.616Z,4.00
2022-09-07T20:21:48.162Z,3.58
2022-09-07T20:23:50.347Z,4.10
2022-09-07T20:26:03.414Z,4.10
2022-09-07T20:28:05.029Z,3.53
2022-09-07T20:30:07.287Z,3.80
2022-09-07T20:32:09.077Z,3.63
2022-09-07T20:34:11.236Z,3.30
2022-09-07T20:36:15.366Z,3.50
2022-09-07T20:38:18.293Z,4.00
2022-09-07T20:40:19.963Z,3.75
2022-09-07T20:42:21.572Z,3.20
2022-09-07T20:44:23.569Z,3.47
2022-09-07T20:46:25.675Z,4.75
2022-09-07T20:48:27.475Z,5.15
2022-09-07T20:50:29.083Z,4.53
2022-09-07T20:52:30.676Z,5.35
2022-09-07T20:54:37.704Z,5.43
2022-09-07T20:56:39.677Z,5.68
2022-09-07T20:58:43.392Z,4.97
2022-09-07T21:00:51.021Z,5.32
2022-09-07T21:02:52.939Z,4.70
2022-09-07T21:04:54.584Z,5.70
2022-09-07T21:06:56.290Z,6.00
2022-09-07T21:08:58.258Z,6.03
2022-09-07T21:11:05.832Z,5.85
2022-09-07T21:13:07.856Z,5.90
2022-09-07T21:15:10.082Z,5.95
2022-09-07T21:17:11.626Z,5.53
2022-09-07T21:19:13.406Z,6.20
2022-09-07T21:21:19.814Z,5.88
2022-09-07T21:23:23.300Z,5.78
2022-09-07T21:25:24.930Z,5.80
2022-09-07T21:27:26.529Z,5.63
2022-09-07T21:29:28.126Z,6.35
2022-09-07T21:31:31.329Z,6.10
2022-09-07T21:33:35.362Z,5.55
2022-09-07T21:35:36.993Z,5.75
2022-09-07T21:37:38.698Z,5.90
2022-09-07T21:39:40.463Z,6.43
2022-09-07T21:41:43.292Z,5.13
2022-09-07T21:43:45.229Z,5.30
2022-09-07T21:45:46.892Z,5.18
2022-09-07T21:47:48.489Z,5.22
2022-09-07T21:49:50.302Z,5.28
2022-09-07T21:51:52.023Z,5.05
2022-09-07T21:53:58.167Z,5.72
2022-09-07T21:56:02.139Z,5.57
2022-09-07T21:58:04.092Z,6.07
2022-09-07T22:00:08.786Z,5.57
2022-09-07T22:02:11.007Z,8.32
2022-09-07T22:04:13.577Z,7.78
2022-09-07T22:06:15.536Z,6.70
2022-09-07T22:08:17.191Z,5.65
2022-09-07T22:10:18.909Z,6.18
2022-09-07T22:12:20.672Z,5.75
2022-09-07T22:14:22.367Z,6.07
2022-09-07T22:16:24.293Z,6.05
2022-09-07T22:18:26.026Z,6.78
2022-09-07T22:20:27.642Z,5.95
2022-09-07T22:22:29.387Z,5.57
2022-09-07T22:24:31.062Z,5.85
2022-09-07T22:26:37.781Z,6.00
2022-09-07T22:28:39.778Z,6.18
2022-09-07T22:30:41.352Z,6.40
2022-09-07T22:32:50.366Z,7.20
2022-09-07T22:34:51.966Z,6.25
2022-09-07T22:36:53.576Z,6.75
2022-09-07T22:38:57.315Z,6.78
2022-09-07T22:41:12.357Z,5.82
2022-09-07T22:43:13.963Z,5.88
2022-09-07T22:45:15.727Z,6.05
2022-09-07T22:47:17.335Z,6.10
2022-09-07T22:49:18.932Z,6.30
2022-09-07T22:51:20.693Z,7.22
2022-09-07T22:53:22.765Z,6.40
2022-09-07T22:55:24.312Z,5.80
2022-09-07T22:57:25.986Z,5.40
2022-09-07T22:59:27.643Z,5.43
2022-09-07T23:01:30.017Z,5.72
2022-09-07T23:03:33.441Z,5.63
2022-09-07T23:07:39.906Z,6.00
2022-09-07T23:09:41.636Z,6.43
2022-09-07T23:11:44.347Z,6.53
2022-09-07T23:13:46.014Z,6.10
2022-09-07T23:15:47.838Z,6.50
2022-09-07T23:17:50.800Z,6.43
2022-09-07T23:19:52.428Z,6.03
2022-09-07T23:21:54.120Z,5.78
2022-09-07T23:23:58.209Z,5.82
2022-09-07T23:26:05.592Z,5.82
2022-09-07T23:28:09.876Z,5.32
2022-09-07T23:30:12.269Z,5.78
2022-09-07T23:32:13.839Z,5.10
2022-09-07T23:34:15.505Z,4.97
2022-09-07T23:36:17.990Z,5.40
2022-09-07T23:38:19.664Z,5.50
2022-09-07T23:40:21.544Z,5.70
2022-09-07T23:42:23.187Z,5.43
2022-09-07T23:44:24.885Z,5.10
2022-09-07T23:46:26.583Z,5.30
2022-09-07T23:48:28.488Z,5.32
2022-09-07T23:50:30.300Z,5.65
2022-09-07T23:52:31.949Z,4.97
2022-09-07T23:54:33.596Z,5.00
2022-09-07T23:56:37.861Z,5.38
2022-09-07T23:58:39.521Z,5.40
